sensor_id;sensor_type;location;lat;lon;timestamp;temperature;humidity
336;DHT22;156;48.738;9.228;2023-04-03T00:02:03;3.20;1.00
336;DHT22;156;48.738;9.228;2023-04-03T00:04:30;3.10;1.00
336;DHT22;156;48.738;9.228;2023-04-03T00:06:57;3.00;1.00
336;DHT22;156;48.738;9.228;2023-04-03T00:09:25;3.10;1.00
336;DHT22;156;48.738;9.228;2023-04-03T00:11:52;3.20;1.00
336;DHT22;156;48.738;9.228;2023-04-03T00:14:19;3.20;1.00
336;DHT22;156;48.738;9.228;2023-04-03T00:16:46;3.20;1.00
336;DHT22;156;48.738;9.228;2023-04-03T00:19:13;3.20;1.00
336;DHT22;156;48.738;9.228;2023-04-03T00:21:40;3.20;1.00
336;DHT22;156;48.738;9.228;2023-04-03T00:24:07;3.10;1.00
336;DHT22;156;48.738;9.228;2023-04-03T00:26:35;3.10;1.00
336;DHT22;156;48.738;9.228;2023-04-03T00:29:02;3.00;1.00
336;DHT22;156;48.738;9.228;2023-04-03T00:31:29;3.00;1.00
336;DHT22;156;48.738;9.228;2023-04-03T00:33:55;3.00;1.00
336;DHT22;156;48.738;9.228;2023-04-03T00:36:22;3.00;1.00
336;DHT22;156;48.738;9.228;2023-04-03T00:38:49;3.00;1.00
336;DHT22;156;48.738;9.228;2023-04-03T00:41:16;3.00;1.00
336;DHT22;156;48.738;9.228;2023-04-03T00:43:44;3.00;1.00
336;DHT22;156;48.738;9.228;2023-04-03T00:46:11;3.00;1.00
336;DHT22;156;48.738;9.228;2023-04-03T00:48:41;2.90;1.00
336;DHT22;156;48.738;9.228;2023-04-03T00:51:12;3.00;1.00
336;DHT22;156;48.738;9.228;2023-04-03T00:53:43;2.90;1.00
336;DHT22;156;48.738;9.228;2023-04-03T00:56:13;3.00;1.00
336;DHT22;156;48.738;9.228;2023-04-03T00:58:46;3.00;1.00
336;DHT22;156;48.738;9.228;2023-04-03T01:01:19;2.90;1.00
336;DHT22;156;48.738;9.228;2023-04-03T01:03:47;2.90;1.00
336;DHT22;156;48.738;9.228;2023-04-03T01:06:16;2.90;1.00
336;DHT22;156;48.738;9.228;2023-04-03T01:08:45;2.90;1.00
336;DHT22;156;48.738;9.228;2023-04-03T01:11:14;2.90;1.00
336;DHT22;156;48.738;9.228;2023-04-03T01:13:41;2.80;1.00
336;DHT22;156;48.738;9.228;2023-04-03T01:16:09;2.70;1.00
336;DHT22;156;48.738;9.228;2023-04-03T01:18:39;2.70;1.00
336;DHT22;156;48.738;9.228;2023-04-03T01:21:30;2.70;1.00
336;DHT22;156;48.738;9.228;2023-04-03T01:26:51;2.70;1.00
336;DHT22;156;48.738;9.228;2023-04-03T01:29:18;2.70;1.00
336;DHT22;156;48.738;9.228;2023-04-03T01:31:52;2.70;1.00
336;DHT22;156;48.738;9.228;2023-04-03T01:34:19;2.70;1.00
336;DHT22;156;48.738;9.228;2023-04-03T01:36:46;2.70;1.00
336;DHT22;156;48.738;9.228;2023-04-03T01:39:13;2.70;1.00
336;DHT22;156;48.738;9.228;2023-04-03T01:41:40;2.60;1.00
336;DHT22;156;48.738;9.228;2023-04-03T01:44:07;2.60;1.00
336;DHT22;156;48.738;9.228;2023-04-03T01:46:34;2.60;1.00
336;DHT22;156;48.738;9.228;2023-04-03T01:49:02;2.60;1.00
336;DHT22;156;48.738;9.228;2023-04-03T01:51:30;2.60;1.00
336;DHT22;156;48.738;9.228;2023-04-03T01:53:56;2.60;1.00
336;DHT22;156;48.738;9.228;2023-04-03T01:56:23;2.60;1.00
336;DHT22;156;48.738;9.228;2023-04-03T01:58:50;2.60;1.00
336;DHT22;156;48.738;9.228;2023-04-03T02:01:17;2.60;1.00
336;DHT22;156;48.738;9.228;2023-04-03T02:03:44;2.60;1.00
336;DHT22;156;48.738;9.228;2023-04-03T02:06:12;2.60;1.00
336;DHT22;156;48.738;9.228;2023-04-03T02:08:39;2.60;1.00
336;DHT22;156;48.738;9.228;2023-04-03T02:11:07;2.70;1.00
336;DHT22;156;48.738;9.228;2023-04-03T02:13:34;2.70;1.00
336;DHT22;156;48.738;9.228;2023-04-03T02:16:06;2.70;1.00
336;DHT22;156;48.738;9.228;2023-04-03T02:18:33;2.80;1.00
336;DHT22;156;48.738;9.228;2023-04-03T02:21:00;2.70;1.00
336;DHT22;156;48.738;9.228;2023-04-03T02:23:28;2.60;1.00
336;DHT22;156;48.738;9.228;2023-04-03T02:26:03;2.70;1.00
336;DHT22;156;48.738;9.228;2023-04-03T02:28:30;2.60;1.00
336;DHT22;156;48.738;9.228;2023-04-03T02:30:57;2.60;1.00
336;DHT22;156;48.738;9.228;2023-04-03T02:33:23;2.60;1.00
336;DHT22;156;48.738;9.228;2023-04-03T02:35:53;2.70;1.00
336;DHT22;156;48.738;9.228;2023-04-03T02:38:20;2.70;1.00
336;DHT22;156;48.738;9.228;2023-04-03T02:40:48;2.70;1.00
336;DHT22;156;48.738;9.228;2023-04-03T02:43:15;2.60;1.00
336;DHT22;156;48.738;9.228;2023-04-03T02:45:42;2.60;1.00
336;DHT22;156;48.738;9.228;2023-04-03T02:48:09;2.60;1.00
336;DHT22;156;48.738;9.228;2023-04-03T02:50:36;2.60;1.00
336;DHT22;156;48.738;9.228;2023-04-03T02:53:03;2.60;1.00
336;DHT22;156;48.738;9.228;2023-04-03T02:55:30;2.60;1.00
336;DHT22;156;48.738;9.228;2023-04-03T02:57:58;2.60;1.00
336;DHT22;156;48.738;9.228;2023-04-03T03:00:25;2.70;1.00
336;DHT22;156;48.738;9.228;2023-04-03T03:02:52;2.70;1.00
336;DHT22;156;48.738;9.228;2023-04-03T03:05:19;2.70;1.00
336;DHT22;156;48.738;9.228;2023-04-03T03:07:46;2.80;1.00
336;DHT22;156;48.738;9.228;2023-04-03T03:10:12;2.70;1.00
336;DHT22;156;48.738;9.228;2023-04-03T03:12:40;2.70;1.00
336;DHT22;156;48.738;9.228;2023-04-03T03:15:09;2.70;1.00
336;DHT22;156;48.738;9.228;2023-04-03T03:17:36;2.70;1.00
336;DHT22;156;48.738;9.228;2023-04-03T03:20:03;2.70;1.00
336;DHT22;156;48.738;9.228;2023-04-03T03:22:30;2.70;1.00
336;DHT22;156;48.738;9.228;2023-04-03T03:24:57;2.70;1.00
336;DHT22;156;48.738;9.228;2023-04-03T03:27:24;2.70;1.00
336;DHT22;156;48.738;9.228;2023-04-03T03:29:50;2.70;1.00
336;DHT22;156;48.738;9.228;2023-04-03T03:32:19;2.80;1.00
336;DHT22;156;48.738;9.228;2023-04-03T03:34:46;2.80;1.00
336;DHT22;156;48.738;9.228;2023-04-03T03:37:12;2.70;1.00
336;DHT22;156;48.738;9.228;2023-04-03T03:39:39;2.70;1.00
336;DHT22;156;48.738;9.228;2023-04-03T03:42:06;2.70;1.00
336;DHT22;156;48.738;9.228;2023-04-03T03:44:33;2.70;1.00
336;DHT22;156;48.738;9.228;2023-04-03T03:47:00;2.70;1.00
336;DHT22;156;48.738;9.228;2023-04-03T03:49:29;2.70;1.00
336;DHT22;156;48.738;9.228;2023-04-03T03:51:56;2.70;1.00
336;DHT22;156;48.738;9.228;2023-04-03T03:54:23;2.80;1.00
336;DHT22;156;48.738;9.228;2023-04-03T03:56:50;2.70;1.00
336;DHT22;156;48.738;9.228;2023-04-03T03:59:17;2.80;1.00
336;DHT22;156;48.738;9.228;2023-04-03T04:01:44;2.80;1.00
336;DHT22;156;48.738;9.228;2023-04-03T04:04:11;2.80;1.00
336;DHT22;156;48.738;9.228;2023-04-03T04:06:39;3.00;1.00
336;DHT22;156;48.738;9.228;2023-04-03T04:09:06;3.00;1.00
336;DHT22;156;48.738;9.228;2023-04-03T04:11:32;2.90;1.00
336;DHT22;156;48.738;9.228;2023-04-03T04:13:59;2.90;1.00
336;DHT22;156;48.738;9.228;2023-04-03T04:16:26;2.90;1.00
336;DHT22;156;48.738;9.228;2023-04-03T04:18:53;3.00;1.00
336;DHT22;156;48.738;9.228;2023-04-03T04:21:20;3.00;1.00
336;DHT22;156;48.738;9.228;2023-04-03T04:23:48;3.00;1.00
336;DHT22;156;48.738;9.228;2023-04-03T04:26:15;3.10;1.00
336;DHT22;156;48.738;9.228;2023-04-03T04:28:42;3.20;1.00
336;DHT22;156;48.738;9.228;2023-04-03T04:31:09;3.00;1.00
336;DHT22;156;48.738;9.228;2023-04-03T04:33:36;3.10;1.00
336;DHT22;156;48.738;9.228;2023-04-03T04:36:03;3.10;1.00
336;DHT22;156;48.738;9.228;2023-04-03T04:38:30;3.10;1.00
336;DHT22;156;48.738;9.228;2023-04-03T04:40:58;3.10;1.00
336;DHT22;156;48.738;9.228;2023-04-03T04:43:25;3.10;1.00
336;DHT22;156;48.738;9.228;2023-04-03T04:46:01;3.00;1.00
336;DHT22;156;48.738;9.228;2023-04-03T04:48:28;2.90;1.00
336;DHT22;156;48.738;9.228;2023-04-03T04:50:55;2.90;1.00
336;DHT22;156;48.738;9.228;2023-04-03T04:53:21;3.00;1.00
336;DHT22;156;48.738;9.228;2023-04-03T04:55:48;3.10;1.00
336;DHT22;156;48.738;9.228;2023-04-03T04:58:17;3.10;1.00
336;DHT22;156;48.738;9.228;2023-04-03T05:00:44;3.00;1.00
336;DHT22;156;48.738;9.228;2023-04-03T05:03:11;3.00;1.00
336;DHT22;156;48.738;9.228;2023-04-03T05:05:38;3.00;1.00
336;DHT22;156;48.738;9.228;2023-04-03T05:08:06;3.00;1.00
336;DHT22;156;48.738;9.228;2023-04-03T05:10:34;3.00;1.00
336;DHT22;156;48.738;9.228;2023-04-03T05:13:00;3.00;1.00
336;DHT22;156;48.738;9.228;2023-04-03T05:15:29;3.00;1.00
336;DHT22;156;48.738;9.228;2023-04-03T05:17:55;3.00;1.00
336;DHT22;156;48.738;9.228;2023-04-03T05:20:22;3.00;1.00
336;DHT22;156;48.738;9.228;2023-04-03T05:22:49;3.10;1.00
336;DHT22;156;48.738;9.228;2023-04-03T05:25:16;3.00;1.00
336;DHT22;156;48.738;9.228;2023-04-03T05:27:43;3.00;1.00
336;DHT22;156;48.738;9.228;2023-04-03T05:30:11;3.00;1.00
336;DHT22;156;48.738;9.228;2023-04-03T05:32:39;3.00;1.00
336;DHT22;156;48.738;9.228;2023-04-03T05:35:07;3.00;1.00
336;DHT22;156;48.738;9.228;2023-04-03T05:37:35;3.00;1.00
336;DHT22;156;48.738;9.228;2023-04-03T05:40:02;3.00;1.00
336;DHT22;156;48.738;9.228;2023-04-03T05:42:29;3.00;1.00
336;DHT22;156;48.738;9.228;2023-04-03T05:44:56;3.00;1.00
336;DHT22;156;48.738;9.228;2023-04-03T05:47:23;3.00;1.00
336;DHT22;156;48.738;9.228;2023-04-03T05:49:51;2.90;1.00
336;DHT22;156;48.738;9.228;2023-04-03T05:52:21;2.80;1.00
336;DHT22;156;48.738;9.228;2023-04-03T05:54:49;2.80;1.00
336;DHT22;156;48.738;9.228;2023-04-03T05:57:16;2.80;1.00
336;DHT22;156;48.738;9.228;2023-04-03T05:59:43;2.70;1.00
336;DHT22;156;48.738;9.228;2023-04-03T06:02:11;2.60;1.00
336;DHT22;156;48.738;9.228;2023-04-03T06:04:38;2.60;1.00
336;DHT22;156;48.738;9.228;2023-04-03T06:07:09;2.60;1.00
336;DHT22;156;48.738;9.228;2023-04-03T06:09:37;2.50;1.00
336;DHT22;156;48.738;9.228;2023-04-03T06:12:04;2.60;1.00
336;DHT22;156;48.738;9.228;2023-04-03T06:14:30;2.60;1.00
336;DHT22;156;48.738;9.228;2023-04-03T06:16:58;2.60;1.00
336;DHT22;156;48.738;9.228;2023-04-03T06:19:25;2.60;1.00
336;DHT22;156;48.738;9.228;2023-04-03T06:21:52;2.70;1.00
336;DHT22;156;48.738;9.228;2023-04-03T06:24:20;2.70;1.00
336;DHT22;156;48.738;9.228;2023-04-03T06:26:49;2.70;1.00
336;DHT22;156;48.738;9.228;2023-04-03T06:29:18;3.00;1.00
336;DHT22;156;48.738;9.228;2023-04-03T06:31:45;3.00;1.00
336;DHT22;156;48.738;9.228;2023-04-03T06:34:13;3.00;1.00
336;DHT22;156;48.738;9.228;2023-04-03T06:36:41;3.20;1.00
336;DHT22;156;48.738;9.228;2023-04-03T06:39:09;3.10;1.00
336;DHT22;156;48.738;9.228;2023-04-03T06:41:39;3.20;1.00
336;DHT22;156;48.738;9.228;2023-04-03T06:44:06;3.20;1.00
336;DHT22;156;48.738;9.228;2023-04-03T06:46:37;3.10;1.00
336;DHT22;156;48.738;9.228;2023-04-03T06:49:04;3.10;1.00
336;DHT22;156;48.738;9.228;2023-04-03T06:51:33;3.20;1.00
336;DHT22;156;48.738;9.228;2023-04-03T06:54:00;3.20;1.00
336;DHT22;156;48.738;9.228;2023-04-03T06:56:27;3.20;1.00
336;DHT22;156;48.738;9.228;2023-04-03T06:58:56;3.20;1.00
336;DHT22;156;48.738;9.228;2023-04-03T07:01:24;3.40;1.00
336;DHT22;156;48.738;9.228;2023-04-03T07:03:51;3.60;1.00
336;DHT22;156;48.738;9.228;2023-04-03T07:06:19;3.60;1.00
336;DHT22;156;48.738;9.228;2023-04-03T07:08:46;3.70;1.00
336;DHT22;156;48.738;9.228;2023-04-03T07:11:14;3.70;1.00
336;DHT22;156;48.738;9.228;2023-04-03T07:13:41;3.50;1.00
336;DHT22;156;48.738;9.228;2023-04-03T07:16:09;3.40;1.00
336;DHT22;156;48.738;9.228;2023-04-03T07:18:36;3.50;1.00
336;DHT22;156;48.738;9.228;2023-04-03T07:21:04;3.70;1.00
336;DHT22;156;48.738;9.228;2023-04-03T07:23:31;3.70;1.00
336;DHT22;156;48.738;9.228;2023-04-03T07:25:58;3.70;1.00
336;DHT22;156;48.738;9.228;2023-04-03T07:28:25;3.60;1.00
336;DHT22;156;48.738;9.228;2023-04-03T07:30:53;3.80;1.00
336;DHT22;156;48.738;9.228;2023-04-03T07:33:23;3.80;1.00
336;DHT22;156;48.738;9.228;2023-04-03T07:35:50;3.80;1.00
336;DHT22;156;48.738;9.228;2023-04-03T07:38:17;3.80;1.00
336;DHT22;156;48.738;9.228;2023-04-03T07:40:46;3.70;1.00
336;DHT22;156;48.738;9.228;2023-04-03T07:43:13;3.70;1.00
336;DHT22;156;48.738;9.228;2023-04-03T07:45:42;3.70;1.00
336;DHT22;156;48.738;9.228;2023-04-03T07:48:09;3.70;1.00
336;DHT22;156;48.738;9.228;2023-04-03T07:50:40;3.70;1.00
336;DHT22;156;48.738;9.228;2023-04-03T07:53:07;3.80;1.00
336;DHT22;156;48.738;9.228;2023-04-03T07:55:34;3.80;1.00
336;DHT22;156;48.738;9.228;2023-04-03T07:58:08;3.90;1.00
336;DHT22;156;48.738;9.228;2023-04-03T08:00:36;4.00;1.00
336;DHT22;156;48.738;9.228;2023-04-03T08:03:03;4.00;1.00
336;DHT22;156;48.738;9.228;2023-04-03T08:05:30;4.00;1.00
336;DHT22;156;48.738;9.228;2023-04-03T08:07:58;4.10;1.00
336;DHT22;156;48.738;9.228;2023-04-03T08:10:25;4.00;1.00
336;DHT22;156;48.738;9.228;2023-04-03T08:12:52;4.00;1.00
336;DHT22;156;48.738;9.228;2023-04-03T08:15:19;4.00;1.00
336;DHT22;156;48.738;9.228;2023-04-03T08:17:46;3.90;1.00
336;DHT22;156;48.738;9.228;2023-04-03T08:20:13;4.00;1.00
336;DHT22;156;48.738;9.228;2023-04-03T08:22:40;4.10;1.00
336;DHT22;156;48.738;9.228;2023-04-03T08:25:09;4.30;1.00
336;DHT22;156;48.738;9.228;2023-04-03T08:27:36;4.50;1.00
336;DHT22;156;48.738;9.228;2023-04-03T08:30:04;4.40;1.00
336;DHT22;156;48.738;9.228;2023-04-03T08:32:33;4.50;1.00
336;DHT22;156;48.738;9.228;2023-04-03T08:35:00;4.70;1.00
336;DHT22;156;48.738;9.228;2023-04-03T08:37:27;4.80;1.00
336;DHT22;156;48.738;9.228;2023-04-03T08:39:54;4.70;1.00
336;DHT22;156;48.738;9.228;2023-04-03T08:42:37;5.00;1.00
336;DHT22;156;48.738;9.228;2023-04-03T08:45:10;5.00;1.00
336;DHT22;156;48.738;9.228;2023-04-03T08:47:39;5.10;1.00
336;DHT22;156;48.738;9.228;2023-04-03T08:50:10;4.90;1.00
336;DHT22;156;48.738;9.228;2023-04-03T08:52:40;4.90;1.00
336;DHT22;156;48.738;9.228;2023-04-03T08:55:18;5.00;1.00
336;DHT22;156;48.738;9.228;2023-04-03T08:57:51;5.00;1.00
336;DHT22;156;48.738;9.228;2023-04-03T09:00:24;5.00;1.00
336;DHT22;156;48.738;9.228;2023-04-03T09:02:54;5.00;1.00
336;DHT22;156;48.738;9.228;2023-04-03T09:05:35;5.10;1.00
336;DHT22;156;48.738;9.228;2023-04-03T09:08:14;5.30;1.00
336;DHT22;156;48.738;9.228;2023-04-03T09:10:43;5.00;1.00
336;DHT22;156;48.738;9.228;2023-04-03T09:13:18;5.00;1.00
336;DHT22;156;48.738;9.228;2023-04-03T09:15:47;5.00;1.00
336;DHT22;156;48.738;9.228;2023-04-03T09:18:19;5.00;1.00
336;DHT22;156;48.738;9.228;2023-04-03T09:20:53;5.10;1.00
336;DHT22;156;48.738;9.228;2023-04-03T09:23:28;5.30;1.00
336;DHT22;156;48.738;9.228;2023-04-03T09:26:00;5.20;1.00
336;DHT22;156;48.738;9.228;2023-04-03T09:28:32;5.30;1.00
336;DHT22;156;48.738;9.228;2023-04-03T09:31:00;5.40;1.00
336;DHT22;156;48.738;9.228;2023-04-03T09:33:29;5.50;1.00
336;DHT22;156;48.738;9.228;2023-04-03T09:35:56;5.60;1.00
336;DHT22;156;48.738;9.228;2023-04-03T09:38:23;5.60;1.00
336;DHT22;156;48.738;9.228;2023-04-03T09:41:04;5.60;1.00
336;DHT22;156;48.738;9.228;2023-04-03T09:43:33;5.30;1.00
336;DHT22;156;48.738;9.228;2023-04-03T09:46:20;5.40;1.00
336;DHT22;156;48.738;9.228;2023-04-03T09:48:51;5.30;1.00
336;DHT22;156;48.738;9.228;2023-04-03T09:51:18;5.20;1.00
336;DHT22;156;48.738;9.228;2023-04-03T09:53:45;5.00;1.00
336;DHT22;156;48.738;9.228;2023-04-03T09:56:21;5.00;1.00
336;DHT22;156;48.738;9.228;2023-04-03T09:58:51;5.00;1.00
336;DHT22;156;48.738;9.228;2023-04-03T10:01:25;5.00;1.00
336;DHT22;156;48.738;9.228;2023-04-03T10:04:08;4.80;1.00
336;DHT22;156;48.738;9.228;2023-04-03T10:06:37;4.90;1.00
336;DHT22;156;48.738;9.228;2023-04-03T10:09:16;4.90;1.00
336;DHT22;156;48.738;9.228;2023-04-03T10:11:59;5.00;1.00
336;DHT22;156;48.738;9.228;2023-04-03T10:14:28;5.00;1.00
336;DHT22;156;48.738;9.228;2023-04-03T10:17:02;5.20;1.00
336;DHT22;156;48.738;9.228;2023-04-03T10:19:36;5.30;1.00
336;DHT22;156;48.738;9.228;2023-04-03T10:22:16;5.20;1.00
336;DHT22;156;48.738;9.228;2023-04-03T10:24:53;4.90;1.00
336;DHT22;156;48.738;9.228;2023-04-03T10:27:29;4.80;1.00
336;DHT22;156;48.738;9.228;2023-04-03T10:30:04;4.90;1.00
336;DHT22;156;48.738;9.228;2023-04-03T10:32:50;5.10;1.00
336;DHT22;156;48.738;9.228;2023-04-03T10:35:27;5.10;1.00
336;DHT22;156;48.738;9.228;2023-04-03T10:38:04;5.10;1.00
336;DHT22;156;48.738;9.228;2023-04-03T10:40:39;5.10;1.00
336;DHT22;156;48.738;9.228;2023-04-03T10:43:12;5.10;1.00
336;DHT22;156;48.738;9.228;2023-04-03T10:45:51;5.10;1.00
336;DHT22;156;48.738;9.228;2023-04-03T10:48:34;5.10;1.00
336;DHT22;156;48.738;9.228;2023-04-03T10:51:16;5.30;1.00
336;DHT22;156;48.738;9.228;2023-04-03T10:53:53;5.50;1.00
336;DHT22;156;48.738;9.228;2023-04-03T10:56:30;5.20;1.00
336;DHT22;156;48.738;9.228;2023-04-03T10:59:05;5.00;1.00
336;DHT22;156;48.738;9.228;2023-04-03T11:01:38;4.90;1.00
336;DHT22;156;48.738;9.228;2023-04-03T11:04:07;4.90;1.00
336;DHT22;156;48.738;9.228;2023-04-03T11:06:37;4.90;1.00
336;DHT22;156;48.738;9.228;2023-04-03T11:09:15;5.10;1.00
336;DHT22;156;48.738;9.228;2023-04-03T11:11:45;5.20;1.00
336;DHT22;156;48.738;9.228;2023-04-03T11:14:17;5.30;1.00
336;DHT22;156;48.738;9.228;2023-04-03T11:16:50;5.20;1.00
336;DHT22;156;48.738;9.228;2023-04-03T11:19:20;5.40;1.00
336;DHT22;156;48.738;9.228;2023-04-03T11:21:56;5.40;1.00
336;DHT22;156;48.738;9.228;2023-04-03T11:24:25;5.40;1.00
336;DHT22;156;48.738;9.228;2023-04-03T11:26:54;5.40;1.00
336;DHT22;156;48.738;9.228;2023-04-03T11:29:24;5.30;1.00
336;DHT22;156;48.738;9.228;2023-04-03T11:32:06;5.20;1.00
336;DHT22;156;48.738;9.228;2023-04-03T11:34:37;5.30;1.00
336;DHT22;156;48.738;9.228;2023-04-03T11:37:15;5.30;1.00
336;DHT22;156;48.738;9.228;2023-04-03T11:39:51;5.20;1.00
336;DHT22;156;48.738;9.228;2023-04-03T11:42:30;5.20;1.00
336;DHT22;156;48.738;9.228;2023-04-03T11:45:28;5.30;1.00
336;DHT22;156;48.738;9.228;2023-04-03T11:48:00;5.40;1.00
336;DHT22;156;48.738;9.228;2023-04-03T11:50:43;5.60;1.00
336;DHT22;156;48.738;9.228;2023-04-03T11:53:28;5.60;1.00
336;DHT22;156;48.738;9.228;2023-04-03T11:56:04;5.70;1.00
336;DHT22;156;48.738;9.228;2023-04-03T11:58:32;5.60;1.00
336;DHT22;156;48.738;9.228;2023-04-03T12:01:05;5.60;1.00
336;DHT22;156;48.738;9.228;2023-04-03T12:10:17;5.50;1.00
336;DHT22;156;48.738;9.228;2023-04-03T12:12:56;5.60;1.00
336;DHT22;156;48.738;9.228;2023-04-03T12:15:41;5.60;1.00
336;DHT22;156;48.738;9.228;2023-04-03T12:21:19;5.70;1.00
336;DHT22;156;48.738;9.228;2023-04-03T12:24:00;5.80;1.00
336;DHT22;156;48.738;9.228;2023-04-03T12:26:32;5.70;1.00
336;DHT22;156;48.738;9.228;2023-04-03T12:29:04;5.60;1.00
336;DHT22;156;48.738;9.228;2023-04-03T12:31:43;5.60;1.00
336;DHT22;156;48.738;9.228;2023-04-03T12:34:23;5.50;1.00
336;DHT22;156;48.738;9.228;2023-04-03T12:36:59;5.50;1.00
336;DHT22;156;48.738;9.228;2023-04-03T12:39:48;5.50;1.00
336;DHT22;156;48.738;9.228;2023-04-03T12:42:42;5.60;1.00
336;DHT22;156;48.738;9.228;2023-04-03T12:45:17;5.70;1.00
336;DHT22;156;48.738;9.228;2023-04-03T12:47:48;5.70;1.00
336;DHT22;156;48.738;9.228;2023-04-03T12:50:24;5.80;1.00
336;DHT22;156;48.738;9.228;2023-04-03T12:52:58;5.80;1.00
336;DHT22;156;48.738;9.228;2023-04-03T12:55:26;5.80;1.00
336;DHT22;156;48.738;9.228;2023-04-03T12:57:54;6.20;1.00
336;DHT22;156;48.738;9.228;2023-04-03T13:00:29;6.20;1.00
336;DHT22;156;48.738;9.228;2023-04-03T13:02:58;6.20;1.00
336;DHT22;156;48.738;9.228;2023-04-03T13:05:25;6.00;1.00
336;DHT22;156;48.738;9.228;2023-04-03T13:07:56;5.90;1.00
336;DHT22;156;48.738;9.228;2023-04-03T13:10:24;6.00;1.00
336;DHT22;156;48.738;9.228;2023-04-03T13:12:55;6.30;1.00
336;DHT22;156;48.738;9.228;2023-04-03T13:15:24;6.40;1.00
336;DHT22;156;48.738;9.228;2023-04-03T13:17:52;6.20;1.00
336;DHT22;156;48.738;9.228;2023-04-03T13:20:22;6.40;1.00
336;DHT22;156;48.738;9.228;2023-04-03T13:22:54;6.50;1.00
336;DHT22;156;48.738;9.228;2023-04-03T13:25:24;6.40;1.00
336;DHT22;156;48.738;9.228;2023-04-03T13:27:54;6.50;1.00
336;DHT22;156;48.738;9.228;2023-04-03T13:30:26;6.40;1.00
336;DHT22;156;48.738;9.228;2023-04-03T13:32:55;6.30;1.00
336;DHT22;156;48.738;9.228;2023-04-03T13:35:29;6.50;1.00
336;DHT22;156;48.738;9.228;2023-04-03T13:37:58;6.50;1.00
336;DHT22;156;48.738;9.228;2023-04-03T13:40:25;6.40;1.00
336;DHT22;156;48.738;9.228;2023-04-03T13:43:02;6.60;1.00
336;DHT22;156;48.738;9.228;2023-04-03T13:45:30;6.70;1.00
336;DHT22;156;48.738;9.228;2023-04-03T13:48:11;6.70;1.00
336;DHT22;156;48.738;9.228;2023-04-03T13:50:59;6.70;1.00
336;DHT22;156;48.738;9.228;2023-04-03T13:53:29;6.80;1.00
336;DHT22;156;48.738;9.228;2023-04-03T13:56:00;6.80;1.00
336;DHT22;156;48.738;9.228;2023-04-03T13:58:29;6.60;1.00
336;DHT22;156;48.738;9.228;2023-04-03T14:01:06;6.80;1.00
336;DHT22;156;48.738;9.228;2023-04-03T14:03:41;6.80;1.00
336;DHT22;156;48.738;9.228;2023-04-03T14:06:12;7.00;1.00
336;DHT22;156;48.738;9.228;2023-04-03T14:08:39;6.90;1.00
336;DHT22;156;48.738;9.228;2023-04-03T14:11:11;6.60;1.00
336;DHT22;156;48.738;9.228;2023-04-03T14:13:41;6.40;1.00
336;DHT22;156;48.738;9.228;2023-04-03T14:16:11;6.40;1.00
336;DHT22;156;48.738;9.228;2023-04-03T14:18:38;6.20;1.00
336;DHT22;156;48.738;9.228;2023-04-03T14:21:05;6.20;1.00
336;DHT22;156;48.738;9.228;2023-04-03T14:23:32;6.30;1.00
336;DHT22;156;48.738;9.228;2023-04-03T14:26:00;6.40;1.00
336;DHT22;156;48.738;9.228;2023-04-03T14:28:27;6.30;1.00
336;DHT22;156;48.738;9.228;2023-04-03T14:30:55;6.30;1.00
336;DHT22;156;48.738;9.228;2023-04-03T14:33:22;6.10;1.00
336;DHT22;156;48.738;9.228;2023-04-03T14:35:51;6.10;1.00
336;DHT22;156;48.738;9.228;2023-04-03T14:38:24;6.40;1.00
336;DHT22;156;48.738;9.228;2023-04-03T14:40:52;7.10;1.00
336;DHT22;156;48.738;9.228;2023-04-03T14:43:19;7.60;1.00
336;DHT22;156;48.738;9.228;2023-04-03T14:45:47;8.00;1.00
336;DHT22;156;48.738;9.228;2023-04-03T14:48:19;7.90;1.00
336;DHT22;156;48.738;9.228;2023-04-03T14:50:47;7.80;1.00
336;DHT22;156;48.738;9.228;2023-04-03T14:53:14;7.60;1.00
336;DHT22;156;48.738;9.228;2023-04-03T14:55:43;7.40;1.00
336;DHT22;156;48.738;9.228;2023-04-03T14:58:13;7.20;1.00
336;DHT22;156;48.738;9.228;2023-04-03T15:00:42;6.80;1.00
336;DHT22;156;48.738;9.228;2023-04-03T15:03:13;6.50;1.00
336;DHT22;156;48.738;9.228;2023-04-03T15:05:43;6.40;1.00
336;DHT22;156;48.738;9.228;2023-04-03T15:08:19;6.40;1.00
336;DHT22;156;48.738;9.228;2023-04-03T15:10:46;6.20;1.00
336;DHT22;156;48.738;9.228;2023-04-03T15:13:13;6.10;1.00
336;DHT22;156;48.738;9.228;2023-04-03T15:15:41;6.10;1.00
336;DHT22;156;48.738;9.228;2023-04-03T15:18:14;6.20;1.00
336;DHT22;156;48.738;9.228;2023-04-03T15:20:43;6.20;1.00
336;DHT22;156;48.738;9.228;2023-04-03T15:23:11;6.30;1.00
336;DHT22;156;48.738;9.228;2023-04-03T15:25:39;6.30;1.00
336;DHT22;156;48.738;9.228;2023-04-03T15:28:06;6.50;1.00
336;DHT22;156;48.738;9.228;2023-04-03T15:30:36;6.30;1.00
336;DHT22;156;48.738;9.228;2023-04-03T15:33:05;6.30;1.00
336;DHT22;156;48.738;9.228;2023-04-03T15:35:31;6.40;1.00
336;DHT22;156;48.738;9.228;2023-04-03T15:38:00;6.30;1.00
336;DHT22;156;48.738;9.228;2023-04-03T15:40:27;6.20;1.00
336;DHT22;156;48.738;9.228;2023-04-03T15:42:54;6.10;1.00
336;DHT22;156;48.738;9.228;2023-04-03T15:45:21;5.90;1.00
336;DHT22;156;48.738;9.228;2023-04-03T15:47:48;5.80;1.00
336;DHT22;156;48.738;9.228;2023-04-03T15:50:15;5.90;1.00
336;DHT22;156;48.738;9.228;2023-04-03T15:52:43;6.20;1.00
336;DHT22;156;48.738;9.228;2023-04-03T15:55:11;6.50;1.00
336;DHT22;156;48.738;9.228;2023-04-03T15:57:38;6.60;1.00
336;DHT22;156;48.738;9.228;2023-04-03T16:00:06;6.80;1.00
336;DHT22;156;48.738;9.228;2023-04-03T16:02:34;7.10;1.00
336;DHT22;156;48.738;9.228;2023-04-03T16:05:01;7.30;1.00
336;DHT22;156;48.738;9.228;2023-04-03T16:07:28;7.40;1.00
336;DHT22;156;48.738;9.228;2023-04-03T16:09:55;7.70;1.00
336;DHT22;156;48.738;9.228;2023-04-03T16:12:23;7.80;1.00
336;DHT22;156;48.738;9.228;2023-04-03T16:14:50;7.70;1.00
336;DHT22;156;48.738;9.228;2023-04-03T16:17:17;7.40;1.00
336;DHT22;156;48.738;9.228;2023-04-03T16:19:44;7.30;1.00
336;DHT22;156;48.738;9.228;2023-04-03T16:22:11;7.00;1.00
336;DHT22;156;48.738;9.228;2023-04-03T16:24:38;6.70;1.00
336;DHT22;156;48.738;9.228;2023-04-03T16:27:05;6.50;1.00
336;DHT22;156;48.738;9.228;2023-04-03T16:29:33;6.30;1.00
336;DHT22;156;48.738;9.228;2023-04-03T16:32:01;6.10;1.00
336;DHT22;156;48.738;9.228;2023-04-03T16:34:28;6.10;1.00
336;DHT22;156;48.738;9.228;2023-04-03T16:36:57;6.30;1.00
336;DHT22;156;48.738;9.228;2023-04-03T16:39:24;6.20;1.00
336;DHT22;156;48.738;9.228;2023-04-03T16:41:51;6.20;1.00
336;DHT22;156;48.738;9.228;2023-04-03T16:44:18;6.50;1.00
336;DHT22;156;48.738;9.228;2023-04-03T16:46:46;6.50;1.00
336;DHT22;156;48.738;9.228;2023-04-03T16:49:13;6.50;1.00
336;DHT22;156;48.738;9.228;2023-04-03T16:51:40;6.60;1.00
336;DHT22;156;48.738;9.228;2023-04-03T16:54:07;6.80;1.00
336;DHT22;156;48.738;9.228;2023-04-03T16:56:35;7.30;1.00
336;DHT22;156;48.738;9.228;2023-04-03T16:59:02;7.30;1.00
336;DHT22;156;48.738;9.228;2023-04-03T17:01:29;6.70;1.00
336;DHT22;156;48.738;9.228;2023-04-03T17:03:57;6.50;1.00
336;DHT22;156;48.738;9.228;2023-04-03T17:06:24;6.40;1.00
336;DHT22;156;48.738;9.228;2023-04-03T17:08:51;6.40;1.00
336;DHT22;156;48.738;9.228;2023-04-03T17:11:18;6.20;1.00
336;DHT22;156;48.738;9.228;2023-04-03T17:13:45;6.40;1.00
336;DHT22;156;48.738;9.228;2023-04-03T17:16:14;6.30;1.00
336;DHT22;156;48.738;9.228;2023-04-03T17:18:42;6.30;1.00
336;DHT22;156;48.738;9.228;2023-04-03T17:21:11;6.20;1.00
336;DHT22;156;48.738;9.228;2023-04-03T17:23:39;6.20;1.00
336;DHT22;156;48.738;9.228;2023-04-03T17:26:06;6.10;1.00
336;DHT22;156;48.738;9.228;2023-04-03T17:28:33;6.30;1.00
336;DHT22;156;48.738;9.228;2023-04-03T17:31:01;6.50;1.00
336;DHT22;156;48.738;9.228;2023-04-03T17:33:29;6.60;1.00
336;DHT22;156;48.738;9.228;2023-04-03T17:35:56;6.50;1.00
336;DHT22;156;48.738;9.228;2023-04-03T17:38:25;6.50;1.00